createdAt,value
2017-10-21T00:02:02.949Z,14.5
2017-10-21T00:07:03.336Z,14.5
2017-10-21T00:12:02.989Z,14.4
2017-10-21T00:17:03.600Z,14.4
2017-10-21T00:22:03.259Z,14.4
2017-10-21T00:27:02.971Z,14.5
2017-10-21T00:32:03.482Z,14.4
2017-10-21T00:37:03.187Z,14.3
2017-10-21T00:42:02.782Z,14.2
2017-10-21T00:47:02.987Z,14.3
2017-10-21T00:52:03.033Z,14.2
2017-10-21T00:57:02.898Z,14.2
2017-10-21T01:02:03.664Z,14.0
2017-10-21T01:07:03.218Z,14.0
2017-10-21T01:12:03.075Z,14.1
2017-10-21T01:17:03.712Z,14.2
2017-10-21T01:22:03.471Z,14.1
2017-10-21T01:27:03.120Z,14.2
2017-10-21T01:32:02.832Z,14.2
2017-10-21T01:37:03.636Z,14.1
2017-10-21T01:42:03.169Z,14.1
2017-10-21T01:47:02.732Z,14.0
2017-10-21T01:52:03.281Z,14.0
2017-10-21T01:57:02.809Z,14.0
2017-10-21T02:02:02.782Z,14.0
2017-10-21T02:07:02.846Z,13.9
2017-10-21T02:12:03.662Z,13.8
2017-10-21T02:17:03.523Z,13.8
2017-10-21T02:22:03.043Z,13.6
2017-10-21T02:27:03.609Z,13.5
2017-10-21T02:32:03.305Z,13.5
2017-10-21T02:37:02.875Z,13.5
2017-10-21T02:42:03.027Z,13.5
2017-10-21T02:47:03.107Z,13.4
2017-10-21T02:52:03.188Z,13.3
2017-10-21T02:57:03.239Z,13.3
2017-10-21T03:02:03.267Z,13.3
2017-10-21T03:07:03.512Z,13.2
2017-10-21T03:12:02.845Z,13.3
2017-10-21T03:17:03.123Z,13.4
2017-10-21T03:22:03.125Z,13.5
2017-10-21T03:27:03.238Z,13.6
2017-10-21T03:32:03.285Z,13.6
2017-10-21T03:37:03.285Z,13.5
2017-10-21T03:42:03.415Z,13.4
2017-10-21T03:47:03.556Z,13.4
2017-10-21T03:52:02.697Z,13.4
2017-10-21T03:57:02.867Z,13.6
2017-10-21T04:02:03.150Z,13.7
2017-10-21T04:07:03.138Z,13.7
2017-10-21T04:12:03.405Z,13.7
2017-10-21T04:17:03.553Z,13.6
2017-10-21T04:22:03.633Z,13.6
2017-10-21T04:27:02.813Z,13.5
2017-10-21T04:32:03.057Z,13.5
2017-10-21T04:37:03.136Z,13.5
2017-10-21T04:42:03.037Z,13.4
2017-10-21T04:47:03.195Z,13.4
2017-10-21T04:52:03.232Z,13.3
2017-10-21T04:57:03.325Z,13.4
2017-10-21T05:02:03.704Z,13.3
2017-10-21T05:07:03.557Z,13.3
2017-10-21T05:12:02.882Z,13.3
2017-10-21T05:17:04.560Z,13.3
2017-10-21T05:22:03.200Z,13.3
2017-10-21T05:27:03.431Z,13.2
2017-10-21T05:32:17.634Z,13.2
2017-10-21T05:37:02.715Z,13.2
2017-10-21T05:42:02.843Z,13.2
2017-10-21T05:47:13.122Z,13.2
2017-10-21T05:52:02.781Z,13.2
2017-10-21T05:57:03.117Z,13.2
2017-10-21T06:02:18.023Z,13.2
2017-10-21T06:07:03.105Z,13.2
2017-10-21T06:12:03.488Z,13.2
2017-10-21T06:17:13.277Z,13.3
2017-10-21T06:22:02.870Z,13.4
2017-10-21T06:27:03.065Z,13.4
2017-10-21T06:32:17.924Z,13.5
2017-10-21T06:37:02.909Z,13.7
2017-10-21T06:42:03.048Z,13.7
2017-10-21T06:47:17.641Z,13.9
2017-10-21T06:52:02.984Z,14.1
2017-10-21T06:57:03.218Z,14.2
2017-10-21T07:02:13.796Z,14.3
2017-10-21T07:07:03.518Z,14.3
2017-10-21T07:12:03.666Z,14.5
2017-10-21T07:17:17.281Z,14.6
2017-10-21T07:22:03.332Z,14.7
2017-10-21T07:27:03.547Z,14.7
2017-10-21T07:32:13.017Z,14.8
2017-10-21T07:37:03.086Z,14.9
2017-10-21T07:42:02.958Z,15.1
2017-10-21T07:47:13.600Z,15.7
2017-10-21T07:52:02.897Z,15.7
2017-10-21T07:57:03.179Z,16.2
2017-10-21T08:02:13.681Z,16.2
2017-10-21T08:07:03.109Z,16.4
2017-10-21T08:12:03.487Z,16.5
2017-10-21T08:17:13.979Z,16.8
2017-10-21T08:22:03.534Z,16.8
2017-10-21T08:27:02.704Z,17.0
2017-10-21T08:32:13.553Z,17.4
2017-10-21T08:37:03.442Z,17.3
2017-10-21T08:42:02.622Z,17.7
2017-10-21T08:47:17.526Z,18.1
2017-10-21T08:52:02.881Z,18.6
2017-10-21T08:57:03.398Z,18.6
2017-10-21T09:02:17.093Z,18.8
2017-10-21T09:07:03.322Z,19.1
2017-10-21T09:12:03.367Z,19.5
2017-10-21T09:17:13.598Z,19.9
2017-10-21T09:22:03.540Z,19.9
2017-10-21T09:27:02.777Z,20.5
2017-10-21T09:32:17.101Z,21.2
2017-10-21T09:37:03.346Z,21.6
2017-10-21T09:42:03.506Z,21.9
2017-10-21T09:47:18.098Z,22.4
2017-10-21T09:52:03.356Z,22.3
2017-10-21T09:57:02.661Z,22.7
2017-10-21T10:02:17.592Z,23.3
2017-10-21T10:07:03.115Z,23.3
2017-10-21T10:12:03.446Z,23.3
2017-10-21T10:17:17.750Z,23.1
2017-10-21T10:22:03.192Z,23.1
2017-10-21T10:27:03.518Z,23.1
2017-10-21T10:32:13.008Z,23.0
2017-10-21T10:37:02.690Z,22.9
2017-10-21T10:42:02.841Z,22.6
2017-10-21T10:47:13.361Z,22.5
2017-10-21T10:52:03.433Z,22.3
2017-10-21T10:57:02.704Z,22.3
2017-10-21T11:02:16.755Z,22.6
2017-10-21T11:07:03.419Z,22.5
2017-10-21T11:12:02.735Z,22.4
2017-10-21T11:17:17.792Z,22.3
2017-10-21T11:22:02.882Z,22.3
2017-10-21T11:27:03.185Z,22.4
2017-10-21T11:32:29.158Z,22.5
2017-10-21T11:37:02.690Z,22.4
2017-10-21T11:42:02.905Z,22.4
2017-10-21T11:47:17.834Z,22.7
2017-10-21T11:52:02.828Z,22.6
2017-10-21T11:57:03.165Z,22.6
2017-10-21T12:02:13.760Z,22.2
2017-10-21T12:07:03.567Z,22.1
2017-10-21T12:12:03.353Z,21.8
2017-10-21T12:17:10.040Z,21.7
2017-10-21T12:22:02.914Z,21.7
2017-10-21T12:27:03.185Z,21.8
2017-10-21T12:32:17.349Z,22.0
2017-10-21T12:37:03.245Z,21.9
2017-10-21T12:42:03.467Z,22.4
2017-10-21T12:47:13.424Z,22.4
2017-10-21T12:52:02.666Z,22.4
2017-10-21T12:57:02.771Z,22.6
2017-10-21T13:02:15.131Z,22.2
2017-10-21T13:07:02.840Z,22.2
2017-10-21T13:12:03.201Z,21.9
2017-10-21T13:17:13.940Z,21.6
2017-10-21T13:22:03.426Z,21.5
2017-10-21T13:27:03.581Z,21.4
2017-10-21T13:32:13.151Z,21.6
2017-10-21T13:37:03.228Z,21.8
2017-10-21T13:42:03.448Z,22.1
2017-10-21T13:47:13.065Z,22.4
2017-10-21T13:52:03.361Z,22.0
2017-10-21T13:57:02.615Z,21.9
2017-10-21T14:02:22.964Z,21.3
2017-10-21T14:07:03.428Z,21.3
2017-10-21T14:12:02.798Z,21.0
2017-10-21T14:17:13.868Z,20.9
2017-10-21T14:22:02.657Z,21.1
2017-10-21T14:27:02.920Z,21.1
2017-10-21T14:32:13.792Z,21.0
2017-10-21T14:37:03.490Z,21.0
2017-10-21T14:42:03.604Z,20.9
2017-10-21T14:47:17.307Z,20.9
2017-10-21T14:52:03.199Z,20.9
2017-10-21T14:57:03.424Z,21.0
2017-10-21T15:02:13.343Z,21.1
2017-10-21T15:07:02.993Z,21.3
2017-10-21T15:12:03.388Z,21.3
2017-10-21T15:17:14.190Z,21.4
2017-10-21T15:22:02.842Z,21.4
2017-10-21T15:27:03.112Z,22.1
2017-10-21T15:32:23.202Z,22.3
2017-10-21T15:37:03.594Z,21.8
2017-10-21T15:42:02.772Z,21.3
2017-10-21T15:47:17.938Z,21.0
2017-10-21T15:52:02.742Z,20.8
2017-10-21T15:57:03.052Z,20.6
2017-10-21T16:02:13.688Z,20.5
2017-10-21T16:07:02.888Z,20.4
2017-10-21T16:12:03.489Z,20.2
2017-10-21T16:17:29.336Z,20.2
2017-10-21T16:22:02.897Z,20.0
2017-10-21T16:27:03.088Z,19.9
2017-10-21T16:32:18.330Z,19.6
2017-10-21T16:37:03.219Z,18.7
2017-10-21T16:42:03.478Z,17.2
2017-10-21T16:47:09.764Z,17.2
2017-10-21T16:52:02.919Z,16.4
2017-10-21T16:57:03.139Z,15.6
2017-10-21T17:02:03.116Z,14.6
2017-10-21T17:07:03.341Z,14.6
2017-10-21T17:12:03.636Z,14.1
2017-10-21T17:17:03.791Z,14.1
2017-10-21T17:22:02.933Z,14.1
2017-10-21T17:27:03.139Z,14.1
2017-10-21T17:32:03.232Z,14.3
2017-10-21T17:37:03.261Z,14.3
2017-10-21T17:42:03.345Z,14.1
2017-10-21T17:47:03.760Z,14.1
2017-10-21T17:52:03.476Z,14.1
2017-10-21T17:57:03.615Z,14.0
2017-10-21T18:02:02.734Z,13.7
2017-10-21T18:07:03.051Z,13.7
2017-10-21T18:12:03.178Z,13.6
2017-10-21T18:17:03.315Z,13.7
2017-10-21T18:22:03.456Z,13.4
2017-10-21T18:27:03.467Z,13.4
2017-10-21T18:32:03.681Z,13.1
2017-10-21T18:37:02.861Z,13.1
2017-10-21T18:42:02.898Z,12.9
2017-10-21T18:47:02.988Z,12.8
2017-10-21T18:52:03.119Z,12.7
2017-10-21T18:57:03.243Z,12.6
2017-10-21T19:02:03.509Z,12.6
2017-10-21T19:07:03.505Z,12.6
2017-10-21T19:12:02.886Z,12.4
2017-10-21T19:17:03.181Z,12.4
2017-10-21T19:22:03.185Z,12.2
2017-10-21T19:27:03.114Z,12.1
2017-10-21T19:32:03.276Z,12.1
2017-10-21T19:37:03.386Z,12.1
2017-10-21T19:42:03.488Z,12.1
2017-10-21T19:47:03.649Z,12.3
2017-10-21T19:52:02.599Z,12.3
2017-10-21T19:57:02.808Z,12.4
2017-10-21T20:02:03.037Z,12.6
2017-10-21T20:07:03.051Z,12.5
2017-10-21T20:12:03.365Z,12.5
2017-10-21T20:17:03.449Z,12.2
2017-10-21T20:22:03.600Z,12.3
2017-10-21T20:27:02.730Z,12.2
2017-10-21T20:32:02.967Z,12.2
2017-10-21T20:37:03.121Z,12.2
2017-10-21T20:42:03.131Z,12.3
2017-10-21T20:47:03.188Z,12.2
2017-10-21T20:52:03.308Z,12.1
2017-10-21T20:57:03.297Z,12.2
2017-10-21T21:02:03.485Z,12.1
2017-10-21T21:07:02.810Z,12.1
2017-10-21T21:12:03.013Z,12.0
2017-10-21T21:17:03.187Z,12.1
2017-10-21T21:22:03.251Z,12.0
2017-10-21T21:27:03.214Z,11.8
2017-10-21T21:32:03.377Z,11.8
2017-10-21T21:37:03.353Z,11.8
2017-10-21T21:42:03.460Z,11.8
2017-10-21T21:47:03.567Z,11.7
2017-10-21T21:52:02.699Z,11.7
2017-10-21T21:57:02.815Z,11.7
2017-10-21T22:02:02.954Z,11.7
2017-10-21T22:07:03.338Z,11.6
2017-10-21T22:12:03.498Z,11.6
2017-10-21T22:22:03.890Z,11.5
2017-10-21T22:27:03.323Z,11.5
2017-10-21T22:32:02.846Z,11.6
2017-10-21T22:37:02.855Z,11.6
2017-10-21T22:42:03.510Z,11.6
2017-10-21T22:47:02.943Z,11.5
2017-10-21T22:52:03.137Z,11.5
2017-10-21T22:57:03.096Z,11.4
2017-10-21T23:02:03.277Z,11.4
2017-10-21T23:07:03.436Z,11.4
2017-10-21T23:12:02.678Z,11.4
2017-10-21T23:17:03.328Z,11.4
2017-10-21T23:22:03.159Z,11.4
2017-10-21T23:27:03.651Z,11.5
2017-10-21T23:32:03.215Z,11.5
2017-10-21T23:37:02.868Z,11.6
2017-10-21T23:42:03.234Z,11.6
2017-10-21T23:47:02.856Z,11.7
2017-10-21T23:52:02.843Z,11.7
2017-10-21T23:57:03.349Z,11.6
